Time;durP1;ratioP1;P1;durP2;ratioP2;P2;SDS_P1;SDS_P2;PMS_P1;PMS_P2;Temp;Humidity;BMP_temperature;BMP_pressure;BME280_temperature;BME280_humidity;BME280_pressure;Samples;Min_cycle;Max_cycle;Signal;HPM_P1;HPM_P2
2023/04/04 00:01:07;;;;;;;6.20;1.92;;;3.30;94.20;;;;;;4029362;29;20447;-87
2023/04/04 00:03:10;;;;;;;4.45;1.70;;;3.30;94.40;;;;;;4028131;29;20081;-87
2023/04/04 00:05:14;;;;;;;3.55;1.90;;;3.20;94.80;;;;;;4029090;29;20125;-87
2023/04/04 00:10:31;;;;;;;2.88;1.73;;;3.20;95.10;;;;;;4028240;29;20069;-86
2023/04/04 00:12:53;;;;;;;3.92;2.05;;;3.10;95.20;;;;;;4027732;29;20057;-86
2023/04/04 00:15:17;;;;;;;4.97;1.63;;;3.10;95.30;;;;;;4029563;29;20050;-86
2023/04/04 00:18:07;;;;;;;3.28;1.48;;;3.20;95.40;;;;;;4043783;29;20128;-86
2023/04/04 00:20:11;;;;;;;2.70;1.60;;;2.00;95.40;;;;;;4044493;29;20029;-86
2023/04/04 00:22:20;;;;;;;6.95;1.77;;;4.10;96.10;;;;;;4028514;29;20097;-87
2023/04/04 00:24:21;;;;;;;5.15;1.60;;;3.00;95.90;;;;;;4042988;29;20151;-86
2023/04/04 00:26:27;;;;;;;4.85;1.45;;;3.00;95.80;;;;;;4043908;29;20033;-87
2023/04/04 00:28:28;;;;;;;7.47;1.92;;;2.40;95.80;;;;;;4028183;29;20034;-87
2023/04/04 00:30:33;;;;;;;5.45;1.80;;;2.90;95.90;;;;;;4043501;29;20034;-86
2023/04/04 00:32:40;;;;;;;4.53;1.95;;;2.80;95.80;;;;;;4037672;29;20106;-86
2023/04/04 00:34:43;;;;;;;5.22;2.15;;;2.90;95.90;;;;;;4011538;29;20117;-86
2023/04/04 00:36:46;;;;;;;6.30;1.77;;;2.80;96.30;;;;;;4027312;29;20108;-86
2023/04/04 00:38:47;;;;;;;4.90;1.88;;;2.80;96.30;;;;;;4011497;29;20050;-86
2023/04/04 00:40:50;;;;;;;5.82;2.13;;;3.50;96.60;;;;;;4026878;29;20045;-86
2023/04/04 00:42:53;;;;;;;3.33;1.80;;;3.30;96.80;;;;;;4027059;29;20073;-86
2023/04/04 00:44:54;;;;;;;4.22;2.10;;;3.60;97.20;;;;;;4026824;29;20049;-86
2023/04/04 00:46:58;;;;;;;3.83;2.00;;;2.80;97.20;;;;;;4025711;29;20053;-86
2023/04/04 00:49:00;;;;;;;2.97;1.70;;;2.70;97.40;;;;;;4025370;29;20041;-86
2023/04/04 00:51:02;;;;;;;5.38;1.95;;;2.70;97.60;;;;;;4025407;29;20057;-85
2023/04/04 00:53:05;;;;;;;3.28;1.90;;;2.70;97.70;;;;;;4010757;29;20072;-85
2023/04/04 00:55:06;;;;;;;4.75;2.28;;;3.10;98.20;;;;;;4019122;29;20038;-86
2023/04/04 00:57:08;;;;;;;7.57;2.20;;;2.80;97.90;;;;;;4009827;29;20046;-85
2023/04/04 00:59:09;;;;;;;6.53;2.10;;;2.70;98.10;;;;;;4011768;29;20474;-86
2023/04/04 01:01:12;;;;;;;3.75;2.05;;;2.70;98.20;;;;;;4010877;29;20046;-86
2023/04/04 01:03:13;;;;;;;4.72;2.30;;;2.70;98.20;;;;;;4010243;29;20053;-86
2023/04/04 01:05:14;;;;;;;5.75;2.20;;;4.00;98.70;;;;;;4009430;29;20124;-86
2023/04/04 01:07:17;;;;;;;8.27;2.30;;;2.60;98.30;;;;;;4011315;29;20061;-86
2023/04/04 01:09:19;;;;;;;5.82;2.25;;;4.10;98.60;;;;;;4010527;29;20060;-86
2023/04/04 01:11:21;;;;;;;6.03;2.85;;;2.50;98.60;;;;;;4010780;29;20050;-86
2023/04/04 01:13:25;;;;;;;5.10;1.98;;;2.50;98.50;;;;;;4011054;29;20045;-86
2023/04/04 01:15:29;;;;;;;7.70;2.30;;;2.50;98.40;;;;;;4012225;29;20069;-86
2023/04/04 01:17:34;;;;;;;4.72;1.95;;;3.30;99.00;;;;;;4012183;29;20050;-85
2023/04/04 01:19:45;;;;;;;4.82;2.10;;;2.40;98.60;;;;;;4012526;29;20053;-86
2023/04/04 01:21:49;;;;;;;8.50;2.58;;;2.40;98.90;;;;;;3995363;29;20057;-86
2023/04/04 01:24:02;;;;;;;5.20;2.00;;;2.30;99.30;;;;;;4010320;29;20057;-86
2023/04/04 01:26:03;;;;;;;7.20;3.35;;;2.30;99.10;;;;;;4011625;29;20053;-86
2023/04/04 01:28:10;;;;;;;4.75;2.42;;;2.30;99.30;;;;;;4010177;29;20153;-86
2023/04/04 01:30:13;;;;;;;7.88;2.53;;;3.00;99.50;;;;;;4010018;29;20548;-86
2023/04/04 01:32:43;;;;;;;4.78;2.47;;;2.20;99.30;;;;;;4009892;29;20054;-85
2023/04/04 01:35:20;;;;;;;5.35;2.08;;;2.20;99.60;;;;;;3979247;29;20062;-86
2023/04/04 01:37:29;;;;;;;7.30;2.60;;;2.20;99.70;;;;;;3995346;29;20053;-86
2023/04/04 01:39:39;;;;;;;5.10;2.15;;;2.10;99.60;;;;;;3995659;29;20057;-86
2023/04/04 01:41:46;;;;;;;5.38;2.08;;;2.10;99.90;;;;;;4001944;29;20503;-87
2023/04/04 01:43:51;;;;;;;4.25;2.25;;;2.10;99.90;;;;;;4011070;29;20129;-88
2023/04/04 01:46:02;;;;;;;4.28;2.30;;;3.10;99.90;;;;;;4011917;29;20085;-88
2023/04/04 01:48:03;;;;;;;5.88;2.88;;;2.10;99.90;;;;;;4011104;29;20086;-87
2023/04/04 01:50:06;;;;;;;6.75;2.72;;;2.10;99.90;;;;;;4011544;29;20042;-87
2023/04/04 01:52:08;;;;;;;8.77;2.75;;;2.10;99.90;;;;;;4010142;29;20052;-84
2023/04/04 01:54:10;;;;;;;8.77;2.53;;;2.10;99.90;;;;;;4010922;29;20050;-84
2023/04/04 01:56:12;;;;;;;11.30;3.38;;;3.30;99.90;;;;;;3994962;29;20141;-84
2023/04/04 01:58:12;;;;;;;6.32;2.15;;;3.50;99.90;;;;;;3999351;29;20097;-83
2023/04/04 02:00:14;;;;;;;5.57;2.22;;;3.60;99.90;;;;;;3996696;29;20046;-84
2023/04/04 02:02:15;;;;;;;5.75;2.30;;;2.00;99.90;;;;;;3995237;29;20057;-83
2023/04/04 02:04:17;;;;;;;4.22;2.22;;;2.10;99.90;;;;;;3996679;29;20047;-84
2023/04/04 02:06:20;;;;;;;8.05;3.15;;;2.00;99.90;;;;;;3994898;29;20408;-84
2023/04/04 02:08:23;;;;;;;6.18;2.65;;;3.50;99.90;;;;;;3996933;29;20479;-84
2023/04/04 02:10:24;;;;;;;6.90;2.97;;;0.80;99.90;;;;;;4010692;29;20054;-84
2023/04/04 02:12:25;;;;;;;9.93;2.95;;;3.10;99.90;;;;;;3980093;29;20386;-84
2023/04/04 02:14:26;;;;;;;7.20;3.33;;;1.80;99.90;;;;;;4010069;29;20507;-83
2023/04/04 02:16:28;;;;;;;5.80;2.88;;;3.10;99.90;;;;;;3994434;29;20086;-84
2023/04/04 02:18:30;;;;;;;9.82;2.38;;;1.60;99.90;;;;;;3996290;29;20059;-84
2023/04/04 02:20:32;;;;;;;4.75;2.17;;;3.30;99.90;;;;;;3980205;29;20126;-83
2023/04/04 02:22:33;;;;;;;5.65;2.60;;;1.90;99.90;;;;;;3996040;29;20054;-84
2023/04/04 02:24:34;;;;;;;9.50;2.30;;;1.90;99.90;;;;;;3996430;29;20053;-84
2023/04/04 02:26:44;;;;;;;4.15;2.17;;;1.80;99.90;;;;;;3996331;29;20050;-84
2023/04/04 02:28:46;;;;;;;3.60;1.92;;;1.80;99.90;;;;;;3980361;29;20058;-84
2023/04/04 02:30:50;;;;;;;4.80;2.13;;;3.10;99.90;;;;;;4006144;29;20194;-84
2023/04/04 02:32:51;;;;;;;7.30;2.53;;;1.80;99.90;;;;;;3999934;29;20515;-84
2023/04/04 02:34:53;;;;;;;6.22;2.75;;;1.80;99.90;;;;;;4010246;29;20103;-84
2023/04/04 02:36:53;;;;;;;5.13;2.10;;;2.40;99.90;;;;;;3994868;29;20065;-84
2023/04/04 02:38:56;;;;;;;6.03;2.00;;;2.20;99.90;;;;;;4011710;29;20109;-83
2023/04/04 02:40:59;;;;;;;14.48;2.95;;;1.60;99.90;;;;;;4011808;29;20053;-84
2023/04/04 02:43:03;;;;;;;5.20;2.10;;;1.90;99.90;;;;;;4010687;29;20058;-83
2023/04/04 02:45:06;;;;;;;5.63;2.13;;;3.00;99.90;;;;;;4011345;29;20054;-83
2023/04/04 02:47:11;;;;;;;5.30;2.10;;;1.40;99.90;;;;;;4010753;29;20090;-84
2023/04/04 02:49:12;;;;;;;5.80;2.33;;;3.10;99.90;;;;;;3995625;29;20069;-84
2023/04/04 02:51:16;;;;;;;5.18;1.80;;;0.20;99.90;;;;;;3995789;29;20046;-84
2023/04/04 02:53:17;;;;;;;5.30;2.00;;;1.60;99.90;;;;;;3996682;29;20107;-83
2023/04/04 02:55:17;;;;;;;4.50;2.00;;;1.00;99.90;;;;;;3995170;29;20063;-84
2023/04/04 02:57:20;;;;;;;4.60;2.08;;;1.50;99.90;;;;;;3995416;29;20091;-84
2023/04/04 02:59:22;;;;;;;12.18;2.47;;;1.50;99.90;;;;;;3996210;29;20061;-84
2023/04/04 03:01:23;;;;;;;5.95;2.50;;;0.30;99.90;;;;;;4001127;29;20057;-84
2023/04/04 03:03:26;;;;;;;12.60;3.00;;;2.40;99.90;;;;;;4027376;29;20065;-84
2023/04/04 03:05:29;;;;;;;3.70;2.13;;;1.40;99.90;;;;;;4025439;29;20049;-84
2023/04/04 03:07:37;;;;;;;5.82;1.88;;;1.30;99.90;;;;;;4009700;29;20046;-84
2023/04/04 03:09:43;;;;;;;4.97;2.45;;;1.40;99.90;;;;;;4025644;29;20130;-84
2023/04/04 03:11:45;;;;;;;4.80;1.77;;;1.40;99.90;;;;;;4026557;29;20133;-83
2023/04/04 03:13:50;;;;;;;6.18;2.05;;;2.50;99.90;;;;;;4025892;29;20057;-83
2023/04/04 03:16:05;;;;;;;5.57;2.10;;;1.00;99.90;;;;;;4026113;29;20060;-83
2023/04/04 03:18:07;;;;;;;4.75;1.80;;;1.20;99.90;;;;;;4027804;29;20073;-83
2023/04/04 03:20:10;;;;;;;6.57;1.88;;;1.20;99.90;;;;;;4016165;29;20141;-83
2023/04/04 03:22:10;;;;;;;4.32;1.60;;;1.20;99.90;;;;;;4011072;29;20054;-83
2023/04/04 03:24:13;;;;;;;5.03;1.80;;;1.20;99.90;;;;;;4011682;29;20053;-83
2023/04/04 03:26:15;;;;;;;5.80;2.20;;;1.10;99.90;;;;;;4012206;29;20125;-83
2023/04/04 03:28:17;;;;;;;6.15;2.13;;;1.10;99.90;;;;;;4010660;29;20054;-83
2023/04/04 03:30:20;;;;;;;5.15;2.20;;;1.00;99.90;;;;;;4015016;29;20048;-83
2023/04/04 03:32:22;;;;;;;3.70;2.15;;;2.10;99.90;;;;;;3998503;29;20082;-83
2023/04/04 03:34:31;;;;;;;4.50;2.00;;;2.20;99.90;;;;;;3998094;29;20061;-83
2023/04/04 03:36:37;;;;;;;6.90;2.00;;;0.40;99.90;;;;;;4000895;29;20050;-83
2023/04/04 03:38:40;;;;;;;3.97;2.08;;;0.30;99.90;;;;;;3998689;29;20121;-83
2023/04/04 03:40:42;;;;;;;4.88;2.08;;;1.00;99.90;;;;;;3998725;29;20049;-84
2023/04/04 03:42:44;;;;;;;4.65;1.90;;;2.10;99.90;;;;;;4000080;29;20095;-83
2023/04/04 03:44:54;;;;;;;4.25;1.63;;;2.60;99.90;;;;;;3984050;29;20085;-83
2023/04/04 03:47:01;;;;;;;4.30;1.63;;;-0.20;99.90;;;;;;4015100;29;20054;-83
2023/04/04 03:49:03;;;;;;;3.92;1.83;;;2.30;99.90;;;;;;4000301;29;20042;-83
2023/04/04 03:51:05;;;;;;;4.57;1.73;;;0.80;99.90;;;;;;4011338;29;20447;-83
2023/04/04 03:53:10;;;;;;;4.53;1.50;;;0.80;99.90;;;;;;4014340;29;20480;-83
2023/04/04 03:55:11;;;;;;;6.20;3.00;;;0.80;99.90;;;;;;4014894;29;20050;-83
2023/04/04 03:57:14;;;;;;;3.42;1.50;;;0.80;99.90;;;;;;4014149;29;20106;-83
2023/04/04 03:59:16;;;;;;;4.50;1.70;;;0.90;99.90;;;;;;3999020;29;20090;-83
2023/04/04 04:01:24;;;;;;;4.15;1.60;;;0.70;99.90;;;;;;4013550;29;20926;-83
2023/04/04 04:03:27;;;;;;;4.30;1.65;;;0.90;99.90;;;;;;4014361;29;20049;-84
2023/04/04 04:05:29;;;;;;;2.42;1.35;;;-0.60;99.90;;;;;;4014846;29;20088;-84
2023/04/04 04:07:33;;;;;;;5.20;1.98;;;2.30;99.90;;;;;;3998893;29;20058;-84
2023/04/04 04:09:35;;;;;;;5.47;2.10;;;-0.40;99.90;;;;;;4013935;29;20057;-83
2023/04/04 04:11:37;;;;;;;5.40;1.90;;;0.60;99.90;;;;;;3998749;29;20050;-84
2023/04/04 04:13:40;;;;;;;3.60;2.22;;;2.10;99.90;;;;;;4014463;29;20388;-84
2023/04/04 04:15:43;;;;;;;4.15;1.80;;;0.50;99.90;;;;;;4014798;29;20109;-86
2023/04/04 04:17:47;;;;;;;3.92;1.80;;;-0.50;99.90;;;;;;4015037;29;20042;-86
2023/04/04 04:19:56;;;;;;;5.65;1.58;;;0.50;99.90;;;;;;3985572;29;20103;-86
2023/04/04 04:22:00;;;;;;;3.28;2.10;;;0.40;99.90;;;;;;3985367;29;20066;-86
2023/04/04 04:24:02;;;;;;;3.20;1.83;;;0.40;99.90;;;;;;4000230;29;20050;-87
2023/04/04 04:26:09;;;;;;;5.25;2.10;;;0.40;99.90;;;;;;4015407;29;20151;-86
2023/04/04 04:28:11;;;;;;;7.03;2.22;;;0.40;99.90;;;;;;3999478;29;20046;-86
2023/04/04 04:30:13;;;;;;;4.50;2.50;;;0.40;99.90;;;;;;3997749;29;20103;-86
2023/04/04 04:32:19;;;;;;;4.82;1.90;;;0.30;99.90;;;;;;3997561;29;20054;-86
2023/04/04 04:34:22;;;;;;;3.22;1.80;;;0.20;99.90;;;;;;3989471;29;20046;-84
2023/04/04 04:36:29;;;;;;;4.57;2.33;;;0.20;99.90;;;;;;4000827;29;20507;-85
2023/04/04 04:38:32;;;;;;;4.68;2.20;;;1.80;99.90;;;;;;3997437;29;20140;-83
2023/04/04 04:40:34;;;;;;;5.28;2.00;;;0.30;99.90;;;;;;3999536;29;20050;-85
2023/04/04 04:42:47;;;;;;;7.43;1.73;;;1.20;99.90;;;;;;3999712;29;20411;-84
2023/04/04 04:44:54;;;;;;;6.65;2.80;;;0.20;99.90;;;;;;3998677;29;20088;-85
2023/04/04 04:46:55;;;;;;;2.92;1.70;;;0.30;99.90;;;;;;3997501;29;20081;-84
2023/04/04 04:48:57;;;;;;;5.22;2.30;;;0.30;99.90;;;;;;3997980;29;20412;-84
2023/04/04 04:51:06;;;;;;;6.28;2.45;;;0.10;99.90;;;;;;4008789;29;20455;-83
2023/04/04 04:53:11;;;;;;;5.20;2.00;;;0.30;99.90;;;;;;4011948;29;20085;-83
2023/04/04 04:55:14;;;;;;;6.50;2.10;;;0.40;99.90;;;;;;3998595;29;20049;-84
2023/04/04 04:57:20;;;;;;;8.35;2.70;;;0.30;99.90;;;;;;4000565;29;20066;-84
2023/04/04 04:59:23;;;;;;;3.83;2.17;;;1.80;99.90;;;;;;3999129;29;20130;-84
2023/04/04 05:01:24;;;;;;;5.05;2.40;;;0.30;99.90;;;;;;3991364;29;20093;-84
2023/04/04 05:03:26;;;;;;;4.03;2.10;;;-0.90;99.90;;;;;;4013328;29;20046;-84
2023/04/04 05:05:33;;;;;;;4.18;2.33;;;-1.10;99.90;;;;;;3997023;29;20074;-84
2023/04/04 05:07:35;;;;;;;4.57;2.45;;;0.10;99.90;;;;;;4012288;29;20054;-84
2023/04/04 05:09:39;;;;;;;9.25;2.63;;;0.40;99.90;;;;;;4011976;29;20114;-84
2023/04/04 05:11:48;;;;;;;6.18;2.35;;;0.30;99.90;;;;;;4009606;29;20480;-85
2023/04/04 05:13:54;;;;;;;3.40;2.25;;;0.30;99.90;;;;;;3998697;29;20050;-85
2023/04/04 05:15:58;;;;;;;7.00;2.22;;;0.30;99.90;;;;;;3997582;29;20058;-85
2023/04/04 05:18:00;;;;;;;7.72;2.58;;;1.40;99.90;;;;;;4008256;29;20054;-85
2023/04/04 05:20:02;;;;;;;4.53;2.45;;;-0.20;99.90;;;;;;3997516;29;20055;-85
2023/04/04 05:22:06;;;;;;;6.15;2.42;;;0.30;99.90;;;;;;4012584;29;20057;-86
2023/04/04 05:24:16;;;;;;;2.97;1.80;;;0.30;99.90;;;;;;4015834;29;20061;-85
2023/04/04 05:26:21;;;;;;;10.05;2.13;;;0.80;99.90;;;;;;4014844;29;20065;-85
2023/04/04 05:28:23;;;;;;;15.32;2.88;;;0.30;99.90;;;;;;4015794;29;20114;-85
2023/04/04 05:30:28;;;;;;;10.98;3.60;;;0.90;99.90;;;;;;4013724;29;20054;-85
2023/04/04 05:32:33;;;;;;;5.50;2.58;;;0.40;99.90;;;;;;4019475;29;20093;-86
2023/04/04 05:34:37;;;;;;;5.97;2.40;;;2.10;99.90;;;;;;4010133;29;20049;-85
2023/04/04 05:36:40;;;;;;;5.00;2.33;;;0.40;99.90;;;;;;4026874;29;20050;-84
2023/04/04 05:38:45;;;;;;;7.55;2.80;;;0.60;99.90;;;;;;4025351;29;20056;-83
2023/04/04 05:40:47;;;;;;;10.65;3.00;;;0.60;99.90;;;;;;4025852;29;20058;-83
2023/04/04 05:42:55;;;;;;;5.50;2.40;;;0.60;99.90;;;;;;4009813;29;20134;-83
2023/04/04 05:44:57;;;;;;;5.78;2.85;;;0.60;99.90;;;;;;4010317;29;20068;-84
2023/04/04 05:47:06;;;;;;;7.70;3.20;;;1.20;99.90;;;;;;4026247;29;20054;-85
2023/04/04 05:49:09;;;;;;;8.07;2.38;;;0.50;99.90;;;;;;4009991;29;20110;-84
2023/04/04 05:51:17;;;;;;;5.65;2.58;;;1.50;99.90;;;;;;4014221;29;20056;-84
2023/04/04 05:53:23;;;;;;;9.23;2.60;;;0.60;99.90;;;;;;4013551;29;20491;-84
2023/04/04 05:55:24;;;;;;;7.25;2.55;;;0.60;99.90;;;;;;4014524;29;20073;-85
2023/04/04 05:57:26;;;;;;;7.57;2.22;;;0.60;99.90;;;;;;4012495;29;20068;-85
2023/04/04 05:59:32;;;;;;;5.95;2.38;;;1.70;99.90;;;;;;4012656;29;20403;-85
2023/04/04 06:01:37;;;;;;;;;;;0.70;99.90;;;;;;4013985;29;20054;-84
2023/04/04 06:03:40;;;;;;;4.78;2.30;;;0.70;99.90;;;;;;4012596;29;19928;-84
2023/04/04 06:05:51;;;;;;;6.07;2.50;;;0.70;99.90;;;;;;4013551;29;20046;-84
2023/04/04 06:07:55;;;;;;;3.80;2.30;;;0.70;99.90;;;;;;3997345;29;20054;-84
2023/04/04 06:09:58;;;;;;;5.40;2.90;;;2.00;99.90;;;;;;4012376;29;20081;-84
2023/04/04 06:12:03;;;;;;;6.40;2.17;;;0.80;99.90;;;;;;4012071;29;20491;-84
2023/04/04 06:14:09;;;;;;;4.03;2.30;;;0.80;99.90;;;;;;3997106;29;20042;-84
2023/04/04 06:16:11;;;;;;;8.43;3.85;;;2.10;99.90;;;;;;4010750;29;20060;-84
2023/04/04 06:18:13;;;;;;;5.80;2.30;;;0.90;99.90;;;;;;4011498;29;20065;-84
2023/04/04 06:20:14;;;;;;;6.47;2.58;;;1.00;99.90;;;;;;4011950;29;20054;-84
2023/04/04 06:22:20;;;;;;;4.82;2.90;;;2.40;99.90;;;;;;3995630;29;20058;-85
2023/04/04 06:24:22;;;;;;;5.97;2.40;;;1.20;99.90;;;;;;3997394;29;20493;-85
2023/04/04 06:26:29;;;;;;;6.13;2.08;;;1.20;99.90;;;;;;3996063;29;20062;-85
2023/04/04 06:28:35;;;;;;;5.72;2.28;;;1.40;99.90;;;;;;4010329;29;20086;-85
2023/04/04 06:30:39;;;;;;;4.38;1.95;;;1.80;99.90;;;;;;4011485;29;20059;-85
2023/04/04 06:32:43;;;;;;;5.72;2.05;;;1.40;99.90;;;;;;3996592;29;20042;-85
2023/04/04 06:34:46;;;;;;;4.43;2.17;;;1.50;99.90;;;;;;3996429;29;20510;-85
2023/04/04 06:36:48;;;;;;;5.22;2.33;;;1.50;99.90;;;;;;4010921;29;20087;-85
2023/04/04 06:38:54;;;;;;;4.20;2.08;;;2.50;99.90;;;;;;3995334;29;20069;-85
2023/04/04 06:40:56;;;;;;;6.50;2.13;;;1.70;99.90;;;;;;3985308;29;20561;-85
2023/04/04 06:42:58;;;;;;;7.65;3.15;;;0.60;99.90;;;;;;3980080;29;20147;-85
2023/04/04 06:44:59;;;;;;;5.28;2.13;;;2.00;99.90;;;;;;3979873;29;20106;-85
2023/04/04 06:47:01;;;;;;;3.63;2.25;;;2.00;99.90;;;;;;3995631;29;20046;-85
2023/04/04 06:49:02;;;;;;;8.48;2.05;;;2.10;99.90;;;;;;3995073;29;20121;-85
2023/04/04 06:51:07;;;;;;;5.93;2.30;;;2.20;99.90;;;;;;3995127;29;20047;-85
2023/04/04 06:53:09;;;;;;;5.32;2.28;;;3.20;99.90;;;;;;3994008;29;20141;-85
2023/04/04 06:55:10;;;;;;;4.57;2.38;;;2.40;99.90;;;;;;3993434;29;20058;-85
2023/04/04 06:57:12;;;;;;;6.00;1.80;;;2.50;99.90;;;;;;3994996;29;20043;-85
2023/04/04 06:59:14;;;;;;;3.60;1.95;;;2.60;99.90;;;;;;4008260;29;20061;-85
2023/04/04 07:01:16;;;;;;;3.00;1.75;;;2.80;99.90;;;;;;3985312;29;20227;-85
2023/04/04 07:03:18;;;;;;;5.38;2.13;;;3.00;99.90;;;;;;3995270;29;20085;-85
2023/04/04 07:05:18;;;;;;;4.75;2.20;;;3.20;99.90;;;;;;3997016;29;20453;-85
2023/04/04 07:07:21;;;;;;;6.30;2.20;;;3.40;99.90;;;;;;3996109;29;20051;-85
2023/04/04 07:09:23;;;;;;;3.15;1.63;;;3.70;99.90;;;;;;3979919;29;20111;-85
2023/04/04 07:11:24;;;;;;;3.50;1.58;;;4.90;99.90;;;;;;3994959;29;20050;-85
2023/04/04 07:13:25;;;;;;;5.18;1.52;;;3.90;99.90;;;;;;3979196;29;20059;-85
2023/04/04 07:15:27;;;;;;;8.10;1.90;;;4.10;99.90;;;;;;4016780;29;20046;-85
2023/04/04 07:17:28;;;;;;;3.28;1.50;;;5.50;99.90;;;;;;4009339;29;20106;-85
2023/04/04 07:19:29;;;;;;;6.03;2.35;;;5.10;99.80;;;;;;3995240;29;20050;-85
2023/04/04 07:21:31;;;;;;;3.83;1.83;;;5.30;99.90;;;;;;4009588;29;20053;-85
2023/04/04 07:23:32;;;;;;;4.70;1.30;;;4.50;99.80;;;;;;3994847;29;20050;-85
2023/04/04 07:25:33;;;;;;;3.50;1.20;;;5.20;99.70;;;;;;3995369;29;20086;-86
2023/04/04 07:27:35;;;;;;;7.47;1.88;;;4.90;99.20;;;;;;3978981;29;20051;-85
2023/04/04 07:29:37;;;;;;;4.45;1.70;;;5.30;98.50;;;;;;3994614;29;20046;-85
2023/04/04 07:31:39;;;;;;;6.40;1.27;;;5.10;98.20;;;;;;3993181;29;20073;-85
2023/04/04 07:33:39;;;;;;;2.97;1.30;;;5.30;98.00;;;;;;3994156;29;20054;-85
2023/04/04 07:35:41;;;;;;;2.30;1.17;;;6.30;97.70;;;;;;3999821;29;20519;-85
2023/04/04 07:37:42;;;;;;;3.08;1.48;;;5.60;97.30;;;;;;4009010;29;20578;-85
2023/04/04 07:39:43;;;;;;;4.45;2.03;;;5.80;97.10;;;;;;3992885;29;20050;-86
2023/04/04 07:41:44;;;;;;;5.18;1.27;;;6.00;96.70;;;;;;4009053;29;20414;-86
2023/04/04 07:43:45;;;;;;;4.25;1.17;;;6.20;96.50;;;;;;4007749;29;20089;-85
2023/04/04 07:45:47;;;;;;;5.10;1.20;;;6.50;96.20;;;;;;4005311;29;20049;-86
2023/04/04 07:47:47;;;;;;;6.97;1.85;;;6.60;95.60;;;;;;4007636;29;20058;-86
2023/04/04 07:49:49;;;;;;;4.80;1.42;;;6.60;95.20;;;;;;4007530;29;20843;-86
2023/04/04 07:51:51;;;;;;;1.50;0.90;;;6.80;95.00;;;;;;4008468;29;20126;-86
2023/04/04 07:53:55;;;;;;;4.10;1.52;;;7.40;94.90;;;;;;4007305;29;20530;-86
2023/04/04 07:55:56;;;;;;;4.03;1.70;;;7.30;93.70;;;;;;4007169;29;20070;-86
2023/04/04 07:57:57;;;;;;;5.00;1.30;;;7.90;93.90;;;;;;4008246;29;20557;-86
2023/04/04 07:59:58;;;;;;;6.03;1.50;;;7.40;92.90;;;;;;4008409;29;20129;-87
2023/04/04 08:01:59;;;;;;;9.15;1.23;;;7.60;92.80;;;;;;4007609;29;20058;-86
2023/04/04 08:04:00;;;;;;;2.50;1.08;;;8.20;92.50;;;;;;4008295;29;20053;-86
2023/04/04 08:06:00;;;;;;;3.78;1.05;;;7.90;92.20;;;;;;4007841;29;20419;-86
2023/04/04 08:08:01;;;;;;;6.50;2.55;;;8.20;91.90;;;;;;4008433;29;20104;-86
2023/04/04 08:10:02;;;;;;;4.35;1.23;;;8.40;91.50;;;;;;4008207;29;20049;-86
2023/04/04 08:12:04;;;;;;;4.18;1.20;;;8.60;90.90;;;;;;3992402;29;20113;-89
2023/04/04 08:14:10;;;;;;;5.82;2.03;;;8.70;90.30;;;;;;3995851;29;20078;-87
2023/04/04 08:16:12;;;;;;;4.03;1.63;;;8.90;90.00;;;;;;4020267;29;20054;-87
2023/04/04 08:18:13;;;;;;;3.58;1.30;;;9.10;88.70;;;;;;4006830;29;20102;-87
2023/04/04 08:20:14;;;;;;;5.25;1.20;;;9.10;87.00;;;;;;3976949;29;20051;-87
2023/04/04 08:22:15;;;;;;;2.97;1.00;;;9.30;86.60;;;;;;3991430;29;20086;-88
2023/04/04 08:24:15;;;;;;;2.80;1.17;;;9.60;85.40;;;;;;3993093;29;20531;-88
2023/04/04 08:26:17;;;;;;;3.03;0.93;;;9.80;84.60;;;;;;3976960;29;20051;-90
2023/04/04 08:28:18;;;;;;;3.20;1.08;;;10.00;83.30;;;;;;3993400;29;20492;-90
2023/04/04 08:30:19;;;;;;;4.35;1.65;;;10.10;82.50;;;;;;3978229;29;20039;-90
2023/04/04 08:32:23;;;;;;;4.53;1.70;;;10.60;81.40;;;;;;3977293;29;20508;-91
2023/04/04 08:34:25;;;;;;;4.32;1.17;;;9.80;79.60;;;;;;3992226;29;20052;-91
2023/04/04 08:36:26;;;;;;;5.68;2.45;;;10.80;78.90;;;;;;3977266;29;20063;-89
2023/04/04 08:38:27;;;;;;;2.60;1.15;;;11.10;77.90;;;;;;3991515;29;20062;-90
2023/04/04 08:40:30;;;;;;;3.20;1.00;;;11.40;77.00;;;;;;3992810;29;20052;-88
2023/04/04 08:42:34;;;;;;;4.22;1.20;;;11.60;75.80;;;;;;4007366;29;20058;-88
2023/04/04 08:44:39;;;;;;;4.88;1.10;;;11.90;74.00;;;;;;3992559;29;20516;-89
2023/04/04 08:46:40;;;;;;;6.75;1.80;;;12.10;73.40;;;;;;4005986;29;20076;-88
2023/04/04 08:48:43;;;;;;;4.43;2.03;;;12.20;71.80;;;;;;4008852;29;20570;-91
2023/04/04 08:50:45;;;;;;;2.25;1.52;;;12.20;70.30;;;;;;3998637;29;20526;-89
2023/04/04 08:52:46;;;;;;;5.93;1.10;;;12.30;69.70;;;;;;4013354;29;20046;-88
2023/04/04 08:54:49;;;;;;;7.32;1.35;;;12.50;68.60;;;;;;4001038;29;20061;-89
2023/04/04 08:56:50;;;;;;;2.55;1.13;;;12.50;66.90;;;;;;4014644;29;20052;-89
2023/04/04 08:58:51;;;;;;;3.83;1.08;;;12.70;66.00;;;;;;4013055;29;20041;-89
2023/04/04 09:00:53;;;;;;;2.80;1.02;;;13.10;64.90;;;;;;4013710;29;20049;-89
2023/04/04 09:03:05;;;;;;;3.40;1.00;;;13.80;63.40;;;;;;3998456;29;20093;-90
2023/04/04 09:05:07;;;;;;;3.75;0.90;;;14.20;60.60;;;;;;4013093;29;20094;-89
2023/04/04 09:07:09;;;;;;;7.38;1.42;;;14.30;59.50;;;;;;4017563;29;20487;-89
2023/04/04 09:09:10;;;;;;;4.05;1.45;;;14.40;58.10;;;;;;4013153;29;20041;-88
2023/04/04 09:11:13;;;;;;;3.67;1.20;;;15.30;56.90;;;;;;3997479;29;20054;-89
2023/04/04 09:13:14;;;;;;;4.07;1.90;;;15.70;54.80;;;;;;4035429;29;20068;-91
2023/04/04 09:15:16;;;;;;;3.95;1.58;;;16.00;54.40;;;;;;4012661;29;20046;-89
2023/04/04 09:17:17;;;;;;;3.22;1.00;;;;;;;;;;4019033;29;20064;-88
2023/04/04 09:19:18;;;;;;;2.50;1.13;;;16.10;52.20;;;;;;4022769;29;20041;-89
2023/04/04 09:21:19;;;;;;;5.85;1.50;;;15.90;52.20;;;;;;4022206;29;20554;-89
2023/04/04 09:23:22;;;;;;;2.95;1.10;;;16.70;51.50;;;;;;4021995;29;20045;-89
2023/04/04 09:25:24;;;;;;;2.33;0.80;;;17.10;50.70;;;;;;4022322;29;20046;-89
2023/04/04 09:27:25;;;;;;;4.60;1.92;;;17.40;50.20;;;;;;4019030;29;20487;-89
2023/04/04 09:29:25;;;;;;;2.55;1.10;;;16.80;49.20;;;;;;3975599;29;20122;-89
2023/04/04 09:31:27;;;;;;;5.43;1.63;;;17.50;49.30;;;;;;3995652;29;20062;-93
2023/04/04 09:33:28;;;;;;;2.83;1.42;;;17.60;48.90;;;;;;3992339;29;20111;-92
2023/04/04 09:35:32;;;;;;;5.90;0.90;;;18.00;48.50;;;;;;3975895;29;20046;-88
2023/04/04 09:37:33;;;;;;;6.15;1.13;;;18.10;47.80;;;;;;3974967;29;20118;-88
2023/04/04 09:39:38;;;;;;;4.78;1.60;;;18.40;48.10;;;;;;3991633;29;20187;-89
2023/04/04 09:41:39;;;;;;;3.78;1.08;;;18.40;47.10;;;;;;4002053;29;20064;-89
2023/04/04 09:43:39;;;;;;;2.90;1.02;;;18.30;47.80;;;;;;4006624;29;20054;-89
2023/04/04 09:45:44;;;;;;;3.78;1.00;;;18.40;47.50;;;;;;4006330;29;20054;-89
2023/04/04 09:47:44;;;;;;;3.63;1.10;;;18.70;47.10;;;;;;3994262;29;20484;-89
2023/04/04 09:49:45;;;;;;;2.47;1.00;;;18.90;47.20;;;;;;3976236;29;20055;-90
2023/04/04 09:51:55;;;;;;;3.95;1.30;;;19.00;46.90;;;;;;3991432;29;20535;-90
2023/04/04 09:53:57;;;;;;;2.42;1.15;;;19.20;45.50;;;;;;3991664;29;20601;-90
2023/04/04 09:55:59;;;;;;;4.47;1.25;;;19.10;46.40;;;;;;3975719;29;20536;-91
2023/04/04 09:58:15;;;;;;;4.05;2.03;;;19.00;46.60;;;;;;3991198;29;20055;-90
2023/04/04 10:00:19;;;;;;;3.83;1.08;;;19.00;45.00;;;;;;3990826;29;20499;-89
2023/04/04 10:02:20;;;;;;;4.40;1.52;;;18.80;45.70;;;;;;3990665;29;20046;-89
2023/04/04 10:04:23;;;;;;;2.47;1.27;;;18.50;46.80;;;;;;4003290;29;20190;-89
2023/04/04 10:06:24;;;;;;;3.40;1.27;;;18.50;47.10;;;;;;4006255;29;20049;-88
2023/04/04 10:08:27;;;;;;;4.63;1.23;;;18.60;47.30;;;;;;4006207;29;20049;-88
2023/04/04 10:10:30;;;;;;;2.50;1.20;;;18.00;46.60;;;;;;4006305;29;20050;-90
2023/04/04 10:12:32;;;;;;;3.03;1.13;;;18.40;46.90;;;;;;4005204;29;20111;-90
2023/04/04 10:14:36;;;;;;;4.38;1.33;;;18.60;47.00;;;;;;4021751;29;20267;-90
2023/04/04 10:16:43;;;;;;;3.80;1.48;;;18.80;46.40;;;;;;4023419;29;20056;-88
2023/04/04 10:18:44;;;;;;;14.35;1.58;;;18.70;46.60;;;;;;4022569;29;20049;-88
2023/04/04 10:20:47;;;;;;;5.90;1.67;;;18.00;46.20;;;;;;4022870;29;20465;-87
2023/04/04 10:22:49;;;;;;;5.38;1.42;;;17.40;46.20;;;;;;4003083;29;20131;-89
2023/04/04 10:24:52;;;;;;;6.13;1.45;;;18.10;46.60;;;;;;4006200;29;20122;-88
2023/04/04 10:26:54;;;;;;;7.45;2.50;;;18.10;46.80;;;;;;4008945;29;20122;-90
2023/04/04 10:28:55;;;;;;;3.40;1.30;;;18.20;46.50;;;;;;3992982;29;20438;-90
2023/04/04 10:31:05;;;;;;;4.97;1.90;;;18.20;46.30;;;;;;3991296;29;20133;-88
2023/04/04 10:33:14;;;;;;;3.45;1.25;;;18.30;45.20;;;;;;4007985;29;20042;-89
2023/04/04 10:35:21;;;;;;;4.72;2.15;;;18.40;45.60;;;;;;4007243;29;20042;-90
2023/04/04 10:37:30;;;;;;;5.38;1.58;;;18.50;45.80;;;;;;4007015;29;20046;-88
2023/04/04 10:39:44;;;;;;;3.50;1.30;;;18.50;45.30;;;;;;3990793;29;20106;-88
2023/04/04 10:41:49;;;;;;;3.50;1.42;;;18.50;44.60;;;;;;4006513;29;20114;-87
2023/04/04 10:43:55;;;;;;;6.45;1.65;;;18.50;45.40;;;;;;4004339;29;20187;-88
2023/04/04 10:46:06;;;;;;;3.35;1.50;;;18.30;45.10;;;;;;4008356;29;20046;-88
2023/04/04 10:48:08;;;;;;;3.97;1.60;;;18.40;44.60;;;;;;3992353;29;20062;-89
2023/04/04 10:50:10;;;;;;;6.47;1.90;;;18.60;45.30;;;;;;4012957;29;20597;-88
2023/04/04 10:52:18;;;;;;;2.55;1.58;;;18.70;45.20;;;;;;4038522;29;20038;-88
2023/04/04 10:54:20;;;;;;;3.50;1.80;;;18.70;43.70;;;;;;4032332;29;20061;-89